James Island, South Carolina
Current Conditions -  °F | °C
As of 11:15 AM on Monday 24 Nov 2014 (Local Time) from KJZI Reporting Station
Haze Haze  
Wind Chill: 21°   Ceiling: 500
Heat Index: 21°   Visibility: 3mi
Dew Point: 21°   Wind: 12mph
Humidity: 100%   Direction: 220°SW
Pressure: 29.9"   Gusts: 17mph
Location:  32.7248°N, 79.9608°W
Report Text: KJZI 241615Z AUTO 22010G15KT 3SM BR OVC005 21/21 A2990 RMK A02 P000
Loading
Personal Weather Stations






























Interactive Weather Map New forecast layout! Learn more

10-Day Weather Forecast

Advertisements
Track Severe Weather on mobile